G.commander — DSQR5 — position and weather

sailwx.info

Track history (hours):
 
Tides and Currents Weather Stations Pressure Air Temp Water Temp Dewpoint Dewpoint Depression Visibility Wind Speed Wind Dir Waves Ship Positions

G.commander

Last reported at 2015-Aug-22 08:13 UTC. Time now 2015-Sep-05 16:23 UTC.
Position N 01°11' E 103°34'.
Warning: this ship's position is 14 days out of date.

Length 230 m; draft 6.8 m.

Type: Tanker. MMSI: 441681000.

Date/timePositionNaut miles runAvg speedWind from/ knotsBaromVisibWave heightAir tempDewpointWater temp
2015-Aug-22 08:13N 01°11' E 103°34'6 3.9
2015-Aug-22 06:33N 01°10' E 103°40'4 4.4
2015-Aug-22 05:32N 01°09' E 103°44'1212.7
2015-Aug-22 04:33N 01°14' E 103°55'  
2015-Aug-13 11:33N 34°33' E 139°54'1211.9
2015-Aug-13 10:33N 34°40' E 140°06'1111.2
2015-Aug-13 09:33N 34°48' E 140°16'1010.2
2015-Aug-13 08:32N 34°55' E 140°25'1010.2
2015-Aug-13 07:33N 35°02' E 140°34'1310.3
2015-Aug-13 06:16N 35°13' E 140°42'1012.6
2015-Aug-13 05:28N 35°21' E 140°50'1414.4
2015-Aug-13 04:32N 35°34' E 140°56'1312.9
2015-Aug-13 03:32N 35°47' E 140°58'1413.7
2015-Aug-13 02:33N 35°57' E 140°48'5 0.9
2015-Aug-12 21:05N 35°56' E 140°42'0 0.0
2015-Aug-12 20:29N 35°56' E 140°42'0 0.0
2015-Aug-12 17:29N 35°56' E 140°42'0 0.0
2015-Aug-12 16:29N 35°56' E 140°42'0 0.0
2015-Aug-12 14:23N 35°56' E 140°42'0 0.0
2015-Aug-12 11:23N 35°56' E 140°42'  
Track history (hours):
 
Tides and Currents Weather Stations Pressure Air Temp Water Temp Dewpoint Dewpoint Depression Visibility Wind Speed Wind Dir Waves Ship Positions

G.commander

Last reported at 2015-Aug-22 08:13 UTC. Time now 2015-Sep-05 16:23 UTC.
Position N 01°11' E 103°34'.
Warning: this ship's position is 14 days out of date.

Length 230 m; draft 6.8 m.

Type: Tanker. MMSI: 441681000.

Date/timePositionNaut miles runAvg speedWind from/ knotsBaromVisibWave heightAir tempDewpointWater temp
2015-Aug-22 08:13N 01°11' E 103°34'6 3.9
2015-Aug-22 06:33N 01°10' E 103°40'4 4.4
2015-Aug-22 05:32N 01°09' E 103°44'1212.7
2015-Aug-22 04:33N 01°14' E 103°55'  
2015-Aug-13 11:33N 34°33' E 139°54'1211.9
2015-Aug-13 10:33N 34°40' E 140°06'1111.2
2015-Aug-13 09:33N 34°48' E 140°16'1010.2
2015-Aug-13 08:32N 34°55' E 140°25'1010.2
2015-Aug-13 07:33N 35°02' E 140°34'1310.3
2015-Aug-13 06:16N 35°13' E 140°42'1012.6
2015-Aug-13 05:28N 35°21' E 140°50'1414.4
2015-Aug-13 04:32N 35°34' E 140°56'1312.9
2015-Aug-13 03:32N 35°47' E 140°58'1413.7
2015-Aug-13 02:33N 35°57' E 140°48'5 0.9
2015-Aug-12 21:05N 35°56' E 140°42'0 0.0
2015-Aug-12 20:29N 35°56' E 140°42'0 0.0
2015-Aug-12 17:29N 35°56' E 140°42'0 0.0
2015-Aug-12 16:29N 35°56' E 140°42'0 0.0
2015-Aug-12 14:23N 35°56' E 140°42'0 0.0
2015-Aug-12 11:23N 35°56' E 140°42'  

Dump ship's entire track history